Kenyon, Minnesota
Current Conditions -  °F | °C
As of 9:34 PM on Friday 19 Dec 2014 (Local Time) from KSYN Reporting Station
Overcast Overcast  
Wind Chill: -3°   Ceiling: 1400
Heat Index: -1°   Visibility: 7mi
Dew Point: -4°   Wind: 5mph
Humidity: 82%   Direction: 160°SSE
Pressure: 30.18"   Gusts: NA
Location:  44.27°N, 92.99°W
Report Text: KSYN 200334Z AUTO 16004KT 7SM OVC014 M01/M03 A3018 RMK AO2 T10081035
Loading
Personal Weather Stations






























Interactive Weather Map New forecast layout! Learn more

10-Day Weather Forecast

Advertisements
Track Severe Weather on mobile